Time,TemperatureF,DewpointF,PressureIn,WindDirection,WindDirectionDegrees,WindSpeedMPH,WindSpeedGustMPH,Humidity,HourlyPrecipIn,Conditions,Clouds,dailyrainin,SolarRadiationWatts/m^2,SoftwareType,DateUTC
2013-04-14 00:12:00,30.0,25.0,-100.00,East,95,7.0,11.0,83,0.00,,,0.00,0.000000,,2013-04-14 05:12:00,
2013-04-14 00:22:00,30.0,25.0,-100.00,East,95,7.0,11.0,83,0.00,,,0.00,0.000000,,2013-04-14 05:22:00,
2013-04-14 00:32:00,30.0,25.0,-100.00,East,95,7.0,11.0,83,0.00,,,0.00,0.000000,,2013-04-14 05:32:00,
2013-04-14 00:42:00,30.0,25.0,-100.00,East,95,7.0,11.0,83,0.00,,,0.00,0.000000,,2013-04-14 05:42:00,
2013-04-14 00:51:00,29.0,27.0,-100.00,ESE,103,9.0,14.0,93,0.00,,,0.00,0.000000,,2013-04-14 05:51:00,
2013-04-14 01:22:00,29.0,27.0,-100.00,ESE,103,9.0,14.0,93,0.00,,,0.00,0.000000,,2013-04-14 06:22:00,
2013-04-14 01:32:00,29.0,27.0,-100.00,ESE,103,9.0,14.0,93,0.00,,,0.00,0.000000,,2013-04-14 06:32:00,
2013-04-14 01:42:00,29.0,27.0,-100.00,ESE,103,9.0,14.0,93,0.00,,,0.00,0.000000,,2013-04-14 06:42:00,
2013-04-14 01:51:00,29.0,28.0,-100.00,East,99,11.0,15.0,95,0.00,,,0.00,0.000000,,2013-04-14 06:51:00,
2013-04-14 02:12:00,29.0,28.0,-100.00,East,99,11.0,15.0,95,0.00,,,0.00,0.000000,,2013-04-14 07:12:00,
2013-04-14 02:22:00,29.0,28.0,-100.00,East,99,11.0,15.0,95,0.00,,,0.00,0.000000,,2013-04-14 07:22:00,
2013-04-14 02:32:00,29.0,28.0,-100.00,East,99,11.0,15.0,95,0.00,,,0.00,0.000000,,2013-04-14 07:32:00,
2013-04-14 02:42:00,29.0,28.0,-100.00,East,99,11.0,15.0,95,0.00,,,0.00,0.000000,,2013-04-14 07:42:00,
2013-04-14 02:51:00,29.0,27.0,-100.00,East,101,12.0,18.0,93,0.00,,,0.00,0.000000,,2013-04-14 07:51:00,
2013-04-14 03:22:00,29.0,27.0,-100.00,East,101,12.0,18.0,93,0.00,,,0.00,0.000000,,2013-04-14 08:22:00,
2013-04-14 03:32:00,29.0,27.0,-100.00,East,101,12.0,18.0,93,0.00,,,0.00,0.000000,,2013-04-14 08:32:00,
2013-04-14 03:42:00,29.0,27.0,-100.00,East,101,12.0,18.0,93,0.00,,,0.00,0.000000,,2013-04-14 08:42:00,
2013-04-14 03:51:00,29.0,27.0,-100.00,East,101,13.0,18.0,93,0.00,,,0.00,0.000000,,2013-04-14 08:51:00,
2013-04-14 04:12:00,29.0,27.0,-100.00,East,101,13.0,18.0,93,0.00,,,0.00,0.000000,,2013-04-14 09:12:00,
2013-04-14 04:22:00,29.0,27.0,-100.00,East,101,13.0,18.0,93,0.00,,,0.00,0.000000,,2013-04-14 09:22:00,
2013-04-14 04:33:00,29.0,27.0,-100.00,East,101,13.0,18.0,93,0.00,,,0.00,0.000000,,2013-04-14 09:33:00,
2013-04-14 04:42:00,29.0,27.0,-100.00,East,101,13.0,18.0,93,0.00,,,0.00,0.000000,,2013-04-14 09:42:00,
2013-04-14 04:51:00,30.0,28.0,-100.00,East,99,13.0,20.0,93,0.00,,,0.00,0.000000,,2013-04-14 09:51:00,
2013-04-14 05:12:00,30.0,28.0,-100.00,East,99,13.0,20.0,93,0.00,,,0.00,0.000000,,2013-04-14 10:12:00,
2013-04-14 05:23:00,30.0,28.0,-100.00,East,99,13.0,20.0,93,0.00,,,0.00,0.000000,,2013-04-14 10:23:00,
2013-04-14 05:33:00,30.0,28.0,-100.00,East,99,13.0,20.0,93,0.00,,,0.00,0.000000,,2013-04-14 10:33:00,
2013-04-14 05:42:00,30.0,28.0,-100.00,East,99,13.0,20.0,93,0.00,,,0.00,0.000000,,2013-04-14 10:42:00,
2013-04-14 05:51:00,29.0,28.0,-100.00,East,96,15.0,24.0,95,0.00,,,0.00,0.000000,,2013-04-14 10:51:00,
2013-04-14 06:12:00,29.0,28.0,-100.00,East,96,15.0,24.0,95,0.00,,,0.00,0.000000,,2013-04-14 11:12:00,
2013-04-14 06:22:00,29.0,28.0,-100.00,East,96,15.0,24.0,95,0.00,,,0.00,0.000000,,2013-04-14 11:22:00,
2013-04-14 06:32:00,29.0,28.0,-100.00,East,96,15.0,24.0,95,0.00,,,0.00,0.000000,,2013-04-14 11:32:00,
2013-04-14 06:42:00,29.0,28.0,-100.00,East,96,15.0,24.0,95,0.00,,,0.00,0.000000,,2013-04-14 11:42:00,
2013-04-14 06:51:00,30.0,28.0,-100.00,East,90,17.0,26.0,91,0.00,,,0.00,0.000000,,2013-04-14 11:51:00,
2013-04-14 07:22:00,30.0,28.0,-100.00,East,90,17.0,26.0,91,0.00,,,0.00,0.000000,,2013-04-14 12:22:00,
2013-04-14 07:32:00,30.0,28.0,-100.00,East,90,17.0,26.0,91,0.00,,,0.00,0.000000,,2013-04-14 12:32:00,
2013-04-14 07:42:00,30.0,28.0,-100.00,East,90,17.0,26.0,91,0.00,,,0.00,0.000000,,2013-04-14 12:42:00,
2013-04-14 07:51:00,29.0,26.0,-100.00,East,89,19.0,27.0,90,0.00,,,0.00,16.000000,,2013-04-14 12:51:00,
2013-04-14 08:22:00,29.0,26.0,-100.00,East,89,19.0,27.0,90,0.00,,,0.00,16.000000,,2013-04-14 13:22:00,
2013-04-14 08:32:00,29.0,26.0,-100.00,East,89,19.0,27.0,90,0.00,,,0.00,16.000000,,2013-04-14 13:32:00,
2013-04-14 08:42:00,29.0,26.0,-100.00,East,89,19.0,27.0,90,0.00,,,0.00,16.000000,,2013-04-14 13:42:00,
2013-04-14 08:51:00,29.0,26.0,-100.00,East,85,19.0,30.0,90,0.00,,,0.00,60.000000,,2013-04-14 13:51:00,
2013-04-14 09:12:00,29.0,26.0,-100.00,East,85,19.0,30.0,90,0.00,,,0.00,60.000000,,2013-04-14 14:12:00,
2013-04-14 09:22:00,29.0,26.0,-100.00,East,85,19.0,30.0,90,0.00,,,0.00,60.000000,,2013-04-14 14:22:00,
2013-04-14 09:32:00,29.0,26.0,-100.00,East,85,19.0,30.0,90,0.00,,,0.00,60.000000,,2013-04-14 14:32:00,
2013-04-14 09:42:00,29.0,26.0,-100.00,East,85,19.0,30.0,90,0.00,,,0.00,60.000000,,2013-04-14 14:42:00,
2013-04-14 09:51:00,31.0,27.0,-100.00,East,88,20.0,30.0,84,0.00,,,0.00,113.000000,,2013-04-14 14:51:00,
2013-04-14 10:12:00,31.0,27.0,-100.00,East,88,20.0,30.0,84,0.00,,,0.00,113.000000,,2013-04-14 15:12:00,
2013-04-14 10:22:00,31.0,27.0,-100.00,East,88,20.0,30.0,84,0.00,,,0.00,113.000000,,2013-04-14 15:22:00,
2013-04-14 10:33:00,31.0,27.0,-100.00,East,88,20.0,30.0,84,0.00,,,0.00,113.000000,,2013-04-14 15:33:00,
2013-04-14 10:43:00,31.0,27.0,-100.00,East,88,20.0,30.0,84,0.00,,,0.00,113.000000,,2013-04-14 15:43:00,
2013-04-14 10:51:00,31.0,29.0,-100.00,East,93,18.0,29.0,92,0.00,,,0.00,108.000000,,2013-04-14 15:51:00,
2013-04-14 11:13:00,31.0,29.0,-100.00,East,93,18.0,29.0,92,0.00,,,0.00,108.000000,,2013-04-14 16:13:00,
2013-04-14 11:22:00,31.0,29.0,-100.00,East,93,18.0,29.0,92,0.00,,,0.00,108.000000,,2013-04-14 16:22:00,
2013-04-14 11:33:00,31.0,29.0,-100.00,East,93,18.0,29.0,92,0.00,,,0.00,108.000000,,2013-04-14 16:33:00,
2013-04-14 11:43:00,31.0,29.0,-100.00,East,93,18.0,29.0,92,0.00,,,0.00,108.000000,,2013-04-14 16:43:00,
2013-04-14 11:51:00,32.0,29.0,-100.00,East,90,17.0,29.0,90,0.00,,,0.00,145.000000,,2013-04-14 16:51:00,
2013-04-14 12:13:00,32.0,29.0,-100.00,East,90,17.0,29.0,90,0.00,,,0.00,145.000000,,2013-04-14 17:13:00,
2013-04-14 12:22:00,32.0,29.0,-100.00,East,90,17.0,29.0,90,0.00,,,0.00,145.000000,,2013-04-14 17:22:00,
2013-04-14 12:32:00,32.0,29.0,-100.00,East,90,17.0,29.0,90,0.00,,,0.00,145.000000,,2013-04-14 17:32:00,
2013-04-14 12:42:00,32.0,29.0,-100.00,East,90,17.0,29.0,90,0.00,,,0.00,145.000000,,2013-04-14 17:42:00,
2013-04-14 12:51:00,32.0,30.0,-100.00,East,96,11.0,25.0,91,0.04,,,0.04,124.000000,,2013-04-14 17:51:00,
2013-04-14 13:12:00,32.0,30.0,-100.00,East,96,11.0,25.0,91,0.04,,,0.04,124.000000,,2013-04-14 18:12:00,
2013-04-14 13:22:00,32.0,30.0,-100.00,East,96,11.0,25.0,91,0.04,,,0.04,124.000000,,2013-04-14 18:22:00,
2013-04-14 13:32:00,32.0,30.0,-100.00,East,96,11.0,25.0,91,0.04,,,0.04,124.000000,,2013-04-14 18:32:00,
2013-04-14 13:43:00,32.0,30.0,-100.00,East,96,11.0,25.0,91,0.04,,,0.04,124.000000,,2013-04-14 18:43:00,
2013-04-14 13:51:00,33.0,31.0,-100.00,East,92,10.0,19.0,91,0.05,,,0.09,93.000000,,2013-04-14 18:51:00,
2013-04-14 14:22:00,33.0,31.0,-100.00,East,92,10.0,19.0,91,0.05,,,0.09,93.000000,,2013-04-14 19:22:00,
2013-04-14 14:32:00,33.0,31.0,-100.00,East,92,10.0,19.0,91,0.05,,,0.09,93.000000,,2013-04-14 19:32:00,
2013-04-14 14:42:00,33.0,31.0,-100.00,East,92,10.0,19.0,91,0.05,,,0.09,93.000000,,2013-04-14 19:42:00,
2013-04-14 14:51:00,33.0,31.0,-100.00,East,92,11.0,18.0,92,0.15,,,0.24,119.000000,,2013-04-14 19:51:00,
2013-04-14 15:13:00,33.0,31.0,-100.00,East,92,11.0,18.0,92,0.15,,,0.24,119.000000,,2013-04-14 20:13:00,
2013-04-14 15:22:00,33.0,31.0,-100.00,East,92,11.0,18.0,92,0.15,,,0.24,119.000000,,2013-04-14 20:22:00,
2013-04-14 15:33:00,33.0,31.0,-100.00,East,92,11.0,18.0,92,0.15,,,0.24,119.000000,,2013-04-14 20:33:00,
2013-04-14 15:42:00,33.0,31.0,-100.00,East,92,11.0,18.0,92,0.15,,,0.24,119.000000,,2013-04-14 20:42:00,
2013-04-14 15:51:00,33.0,31.0,-100.00,East,91,9.0,13.0,93,0.04,,,0.28,61.000000,,2013-04-14 20:51:00,
2013-04-14 16:23:00,33.0,31.0,-100.00,East,91,9.0,13.0,93,0.04,,,0.28,61.000000,,2013-04-14 21:23:00,
2013-04-14 16:33:00,33.0,31.0,-100.00,East,91,9.0,13.0,93,0.04,,,0.28,61.000000,,2013-04-14 21:33:00,
2013-04-14 16:43:00,33.0,31.0,-100.00,East,91,9.0,13.0,93,0.04,,,0.28,61.000000,,2013-04-14 21:43:00,
2013-04-14 16:51:00,33.0,31.0,-100.00,East,91,8.0,16.0,94,0.04,,,0.32,77.000000,,2013-04-14 21:51:00,
2013-04-14 17:13:00,33.0,31.0,-100.00,East,91,8.0,16.0,94,0.04,,,0.32,77.000000,,2013-04-14 22:13:00,
2013-04-14 17:23:00,33.0,31.0,-100.00,East,91,8.0,16.0,94,0.04,,,0.32,77.000000,,2013-04-14 22:23:00,
2013-04-14 17:33:00,33.0,31.0,-100.00,East,91,8.0,16.0,94,0.04,,,0.32,77.000000,,2013-04-14 22:33:00,
2013-04-14 17:43:00,33.0,31.0,-100.00,East,91,8.0,16.0,94,0.04,,,0.32,77.000000,,2013-04-14 22:43:00,
2013-04-14 17:51:00,33.0,32.0,-100.00,East,92,7.0,12.0,95,0.03,,,0.35,65.000000,,2013-04-14 22:51:00,
2013-04-14 18:22:00,33.0,32.0,-100.00,East,92,7.0,12.0,95,0.03,,,0.35,65.000000,,2013-04-14 23:22:00,
2013-04-14 18:33:00,33.0,32.0,-100.00,East,92,7.0,12.0,95,0.03,,,0.35,65.000000,,2013-04-14 23:33:00,
2013-04-14 18:43:00,33.0,32.0,-100.00,East,92,7.0,12.0,95,0.03,,,0.35,65.000000,,2013-04-14 23:43:00,
2013-04-14 18:51:00,33.0,32.0,-100.00,East,99,11.0,19.0,96,0.03,,,0.38,38.000000,,2013-04-14 23:51:00,
2013-04-14 19:23:00,33.0,32.0,-100.00,East,99,11.0,19.0,96,0.03,,,0.38,38.000000,,2013-04-15 00:23:00,
2013-04-14 19:33:00,33.0,32.0,-100.00,East,99,11.0,19.0,96,0.03,,,0.38,38.000000,,2013-04-15 00:33:00,
2013-04-14 19:42:00,33.0,32.0,-100.00,East,99,11.0,19.0,96,0.03,,,0.38,38.000000,,2013-04-15 00:42:00,
2013-04-14 19:51:00,33.0,32.0,-100.00,East,98,11.0,17.0,96,0.01,,,0.39,20.000000,,2013-04-15 00:51:00,
2013-04-14 20:12:00,33.0,32.0,-100.00,East,98,11.0,17.0,96,0.01,,,0.39,20.000000,,2013-04-15 01:12:00,
2013-04-14 20:23:00,33.0,32.0,-100.00,East,98,11.0,17.0,96,0.01,,,0.39,20.000000,,2013-04-15 01:23:00,
2013-04-14 20:32:00,33.0,32.0,-100.00,East,98,11.0,17.0,96,0.01,,,0.39,20.000000,,2013-04-15 01:32:00,
2013-04-14 20:42:00,33.0,32.0,-100.00,East,98,11.0,17.0,96,0.01,,,0.39,20.000000,,2013-04-15 01:42:00,
2013-04-14 20:51:00,33.0,32.0,-100.00,East,101,11.0,19.0,98,0.02,,,0.41,1.000000,,2013-04-15 01:51:00,
2013-04-14 21:22:00,33.0,32.0,-100.00,East,101,11.0,19.0,98,0.02,,,0.41,1.000000,,2013-04-15 02:22:00,
2013-04-14 21:32:00,33.0,32.0,-100.00,East,101,11.0,19.0,98,0.02,,,0.41,1.000000,,2013-04-15 02:32:00,
2013-04-14 21:42:00,33.0,32.0,-100.00,East,101,11.0,19.0,98,0.02,,,0.41,1.000000,,2013-04-15 02:42:00,
2013-04-14 21:51:00,33.0,32.0,-100.00,ESE,102,12.0,17.0,98,0.01,,,0.42,0.000000,,2013-04-15 02:51:00,
2013-04-14 22:12:00,33.0,32.0,-100.00,ESE,102,12.0,17.0,98,0.01,,,0.42,0.000000,,2013-04-15 03:12:00,
2013-04-14 22:22:00,33.0,32.0,-100.00,ESE,102,12.0,17.0,98,0.01,,,0.42,0.000000,,2013-04-15 03:22:00,
2013-04-14 22:33:00,33.0,32.0,-100.00,ESE,102,12.0,17.0,98,0.01,,,0.42,0.000000,,2013-04-15 03:33:00,
2013-04-14 22:43:00,33.0,32.0,-100.00,ESE,102,12.0,17.0,98,0.01,,,0.42,0.000000,,2013-04-15 03:43:00,
2013-04-14 22:51:00,33.0,33.0,-100.00,SE,124,9.0,18.0,99,0.01,,,0.43,0.000000,,2013-04-15 03:51:00,
2013-04-14 23:13:00,33.0,33.0,-100.00,SE,124,9.0,18.0,99,0.01,,,0.43,0.000000,,2013-04-15 04:13:00,
2013-04-14 23:23:00,33.0,33.0,-100.00,SE,124,9.0,18.0,99,0.01,,,0.43,0.000000,,2013-04-15 04:23:00,
2013-04-14 23:33:00,33.0,33.0,-100.00,SE,124,9.0,18.0,99,0.01,,,0.43,0.000000,,2013-04-15 04:33:00,
2013-04-14 23:42:00,33.0,33.0,-100.00,SE,124,9.0,18.0,99,0.01,,,0.43,0.000000,,2013-04-15 04:42:00,
2013-04-14 23:51:00,35.0,32.0,-100.00,SSW,209,12.0,18.0,90,0.00,,,0.43,0.000000,,2013-04-15 04:51:00,